Mc Henry, Kentucky
Current Conditions -  °F | °C
As of 2:55 AM on Saturday 25 Oct 2014 (Local Time) from K2I0 Reporting Station
Overcast Overcast  
Wind Chill: 53°   Ceiling: 4500
Heat Index: 53°   Visibility: 7mi
Dew Point: 53°   Wind: 0mph
Humidity: 100%   Direction: NA
Pressure: 30.06"   Gusts: NA
Location:  37.3808°N, 86.9237°W
Report Text: K2I0 250755Z AUTO 00000KT 7SM OVC045 12/12 A3006 RMK AO2 T01150115
Loading
Personal Weather Stations






























Interactive Weather Map
Tropical Storm Tracking
New forecast layout! Learn more

10-Day Weather Forecast

Advertisements
Track Severe Weather on mobile